Aviation Digital Data Service (ADDS)

Output produced by TAFs form (0755 UTC 28 May 2016)
found at http://www.aviationweather.gov/adds/tafs/
 
KABE 280536Z 2806/2906 23005KT P6SM FEW050 
     FM280900 20003KT 4SM BR SCT050 
     TEMPO 2810/2812 2SM BR 
     FM281400 22006KT P6SM SCT250 
     FM281800 21010G17KT P6SM SCT050 
     FM290000 22004KT P6SM SKC